createdAt,value
2022-09-28T00:01:18.391Z,8.80
2022-09-28T00:03:47.896Z,8.90
2022-09-28T00:06:19.283Z,8.80
2022-09-28T00:08:50.361Z,8.80
2022-09-28T00:11:20.717Z,10.10
2022-09-28T00:13:56.313Z,8.70
2022-09-28T00:16:27.701Z,8.70
2022-09-28T00:18:55.725Z,9.30
2022-09-28T00:21:25.757Z,8.70
2022-09-28T00:24:15.108Z,10.10
2022-09-28T00:26:46.914Z,8.90
2022-09-28T00:29:31.877Z,8.70
2022-09-28T00:32:05.439Z,8.60
2022-09-28T00:34:40.866Z,8.60
2022-09-28T00:37:09.364Z,8.60
2022-09-28T00:39:38.430Z,8.50
2022-09-28T00:42:12.026Z,8.50
2022-09-28T00:44:46.292Z,8.50
2022-09-28T00:47:42.148Z,8.50
2022-09-28T00:50:31.123Z,8.50
2022-09-28T00:53:04.551Z,8.50
2022-09-28T00:55:42.801Z,8.50
2022-09-28T00:58:16.448Z,8.50
2022-09-28T01:00:44.212Z,8.40
2022-09-28T01:03:14.290Z,8.70
2022-09-28T01:05:42.390Z,8.40
2022-09-28T01:08:11.331Z,8.40
2022-09-28T01:10:40.661Z,8.40
2022-09-28T01:13:08.153Z,10.80
2022-09-28T01:15:43.542Z,9.60
2022-09-28T01:18:27.919Z,9.80
2022-09-28T01:21:10.873Z,8.30
2022-09-28T01:23:44.293Z,8.30
2022-09-28T01:27:13.530Z,8.30
2022-09-28T01:30:08.121Z,7.90
2022-09-28T01:32:38.896Z,8.30
2022-09-28T01:35:17.531Z,8.20
2022-09-28T01:37:56.950Z,8.20
2022-09-28T01:40:27.799Z,8.20
2022-09-28T01:43:01.050Z,8.30
2022-09-28T01:45:38.529Z,8.20
2022-09-28T01:48:08.185Z,8.10
2022-09-28T01:50:40.454Z,8.10
2022-09-28T01:53:19.411Z,8.10
2022-09-28T01:56:22.748Z,8.00
2022-09-28T01:58:57.320Z,8.10
2022-09-28T02:01:36.694Z,8.00
2022-09-28T02:04:28.530Z,7.90
2022-09-28T02:07:04.953Z,8.10
2022-09-28T02:09:38.811Z,8.00
2022-09-28T02:12:16.440Z,7.60
2022-09-28T02:14:49.041Z,8.00
2022-09-28T02:17:16.733Z,7.90
2022-09-28T02:19:48.533Z,10.10
2022-09-28T02:22:37.373Z,8.00
2022-09-28T02:25:20.028Z,7.90
2022-09-28T02:27:56.436Z,7.90
2022-09-28T02:30:24.155Z,7.90
2022-09-28T02:32:56.824Z,9.40
2022-09-28T02:35:24.709Z,7.90
2022-09-28T02:37:52.512Z,7.90
2022-09-28T02:40:24.119Z,7.90
2022-09-28T02:42:58.066Z,7.80
2022-09-28T02:45:47.604Z,7.70
2022-09-28T02:48:35.947Z,7.80
2022-09-28T02:51:45.091Z,7.80
2022-09-28T02:54:19.061Z,7.80
2022-09-28T02:57:08.751Z,7.80
2022-09-28T02:59:57.690Z,7.70
2022-09-28T03:02:43.969Z,7.80
2022-09-28T03:05:46.582Z,7.80
2022-09-28T03:09:09.250Z,7.70
2022-09-28T03:11:44.216Z,7.70
2022-09-28T03:14:12.332Z,7.70
2022-09-28T03:16:47.556Z,7.70
2022-09-28T03:19:18.030Z,7.60
2022-09-28T03:21:45.724Z,8.90
2022-09-28T03:24:13.663Z,7.60
2022-09-28T03:26:41.698Z,7.60
2022-09-28T03:29:10.271Z,7.60
2022-09-28T03:31:39.150Z,7.50
2022-09-28T03:34:07.141Z,7.50
2022-09-28T03:36:34.910Z,7.50
2022-09-28T03:39:03.040Z,9.80
2022-09-28T03:41:30.673Z,7.50
2022-09-28T03:46:28.336Z,7.50
2022-09-28T03:49:00.111Z,8.10
2022-09-28T03:51:29.819Z,8.40
2022-09-28T03:53:57.651Z,7.40
2022-09-28T03:56:25.308Z,7.40
2022-09-28T03:58:52.760Z,6.80
2022-09-28T04:01:20.758Z,8.30
2022-09-28T04:03:53.198Z,7.40
2022-09-28T04:06:20.776Z,7.40
2022-09-28T04:08:48.261Z,7.40
2022-09-28T04:11:15.917Z,7.40
2022-09-28T04:13:44.152Z,7.40
2022-09-28T04:16:14.503Z,8.50
2022-09-28T04:18:45.625Z,7.30
2022-09-28T04:21:34.040Z,7.30
2022-09-28T04:24:11.021Z,7.30
2022-09-28T04:26:39.023Z,7.30
2022-09-28T04:29:18.211Z,7.20
2022-09-28T04:31:56.188Z,9.10
2022-09-28T04:34:35.097Z,7.30
2022-09-28T04:37:04.416Z,7.30
2022-09-28T04:39:31.899Z,8.30
2022-09-28T04:41:59.993Z,8.90
2022-09-28T04:44:28.682Z,7.50
2022-09-28T04:47:04.350Z,7.30
2022-09-28T04:49:35.312Z,7.40
2022-09-28T04:52:08.801Z,7.20
2022-09-28T04:54:36.717Z,7.20
2022-09-28T04:57:05.978Z,7.20
2022-09-28T04:59:33.683Z,7.20
2022-09-28T05:02:01.556Z,7.20
2022-09-28T05:04:50.127Z,7.20
2022-09-28T05:07:45.750Z,7.20
2022-09-28T05:10:13.362Z,7.70
2022-09-28T05:12:41.549Z,7.20
2022-09-28T05:15:10.710Z,7.20
2022-09-28T05:17:38.853Z,7.20
2022-09-28T05:22:39.405Z,7.10
2022-09-28T05:25:09.506Z,7.10
2022-09-28T05:27:48.641Z,7.10
2022-09-28T05:30:37.106Z,7.10
2022-09-28T05:33:29.691Z,7.10
2022-09-28T05:36:14.010Z,7.20
2022-09-28T05:38:43.663Z,7.10
2022-09-28T05:41:11.789Z,7.10
2022-09-28T05:43:40.011Z,7.50
2022-09-28T05:46:07.902Z,7.10
2022-09-28T05:48:38.358Z,7.10
2022-09-28T05:51:05.984Z,7.10
2022-09-28T05:53:33.545Z,7.10
2022-09-28T05:56:01.344Z,7.10
2022-09-28T05:58:31.878Z,7.10
2022-09-28T06:01:00.226Z,7.10
2022-09-28T06:03:27.877Z,8.40
2022-09-28T06:05:55.559Z,7.10
2022-09-28T06:08:24.456Z,7.10
2022-09-28T06:11:04.149Z,7.10
2022-09-28T06:13:32.176Z,7.10
2022-09-28T06:16:00.207Z,7.10
2022-09-28T06:18:27.918Z,7.10
2022-09-28T06:21:23.217Z,7.20
2022-09-28T06:23:51.551Z,7.10
2022-09-28T06:26:19.897Z,7.10
2022-09-28T06:28:47.743Z,7.20
2022-09-28T06:31:15.817Z,7.20
2022-09-28T06:33:49.589Z,7.30
2022-09-28T06:36:19.698Z,7.40
2022-09-28T06:38:47.245Z,7.50
2022-09-28T06:41:15.911Z,7.60
2022-09-28T06:43:46.154Z,7.70
2022-09-28T06:46:14.408Z,7.80
2022-09-28T06:48:51.257Z,7.90
2022-09-28T06:51:23.531Z,7.90
2022-09-28T06:53:58.575Z,7.90
2022-09-28T06:56:40.208Z,8.00
2022-09-28T06:59:07.965Z,8.00
2022-09-28T07:01:37.082Z,8.10
2022-09-28T07:04:09.502Z,8.20
2022-09-28T07:06:55.663Z,9.40
2022-09-28T07:09:55.353Z,8.40
2022-09-28T07:12:43.269Z,8.40
2022-09-28T07:15:34.769Z,8.60
2022-09-28T07:18:04.370Z,8.60
2022-09-28T07:20:44.566Z,8.70
2022-09-28T07:23:19.826Z,8.70
2022-09-28T07:26:24.009Z,8.80
2022-09-28T07:29:15.067Z,8.90
2022-09-28T07:32:18.029Z,9.50
2022-09-28T07:35:09.909Z,9.10
2022-09-28T07:37:47.252Z,9.20
2022-09-28T07:40:33.952Z,9.20
2022-09-28T07:43:06.013Z,9.70
2022-09-28T07:45:36.700Z,9.30
2022-09-28T07:48:04.656Z,9.30
2022-09-28T07:50:34.935Z,9.40
2022-09-28T07:53:12.501Z,9.50
2022-09-28T07:56:02.100Z,9.50
2022-09-28T07:58:38.720Z,9.50
2022-09-28T08:01:44.816Z,9.60
2022-09-28T08:04:14.949Z,9.70
2022-09-28T08:06:44.981Z,9.70
2022-09-28T08:09:14.405Z,9.80
2022-09-28T08:12:01.272Z,9.70
2022-09-28T08:14:41.643Z,10.40
2022-09-28T08:17:50.490Z,9.80
2022-09-28T08:20:39.187Z,9.90
2022-09-28T08:23:08.645Z,10.00
2022-09-28T08:25:38.299Z,9.90
2022-09-28T08:28:07.306Z,10.00
2022-09-28T08:30:39.780Z,10.00
2022-09-28T08:33:42.908Z,10.10
2022-09-28T08:36:29.327Z,10.10
2022-09-28T08:38:56.838Z,10.20
2022-09-28T08:41:49.520Z,10.30
2022-09-28T08:44:44.802Z,10.30
2022-09-28T08:48:03.131Z,10.50
2022-09-28T08:50:52.877Z,10.50
2022-09-28T08:53:40.788Z,10.50
2022-09-28T08:57:05.921Z,10.60
2022-09-28T09:00:01.290Z,10.70
2022-09-28T09:02:33.896Z,10.90
2022-09-28T09:05:19.158Z,11.00
2022-09-28T09:08:39.390Z,11.10
2022-09-28T09:11:34.257Z,11.20
2022-09-28T09:14:45.680Z,11.10
2022-09-28T09:17:31.380Z,11.30
2022-09-28T09:20:36.378Z,11.40
2022-09-28T09:23:48.066Z,11.50
2022-09-28T09:26:24.853Z,11.60
2022-09-28T09:29:34.985Z,11.70
2022-09-28T09:32:14.720Z,11.80
2022-09-28T09:34:55.109Z,11.80
2022-09-28T09:38:16.784Z,11.90
2022-09-28T09:41:15.467Z,12.00
2022-09-28T09:44:39.281Z,12.00
2022-09-28T09:47:40.920Z,12.20
2022-09-28T09:50:40.028Z,12.30
2022-09-28T09:53:20.980Z,12.40
2022-09-28T09:55:57.257Z,12.50
2022-09-28T09:58:46.171Z,12.70
2022-09-28T10:01:40.010Z,13.70
2022-09-28T10:04:27.888Z,12.80
2022-09-28T10:07:05.675Z,12.70
2022-09-28T10:09:45.664Z,13.00
2022-09-28T10:12:42.392Z,13.10
2022-09-28T10:15:17.576Z,13.20
2022-09-28T10:18:06.577Z,13.30
2022-09-28T10:20:54.154Z,13.40
2022-09-28T10:23:36.312Z,13.30
2022-09-28T10:26:11.315Z,13.40
2022-09-28T10:28:55.714Z,13.40
2022-09-28T10:31:48.950Z,14.50
2022-09-28T10:34:30.551Z,13.50
2022-09-28T10:37:08.919Z,13.50
2022-09-28T10:40:31.818Z,13.60
2022-09-28T10:43:02.557Z,13.60
2022-09-28T10:45:36.279Z,13.60
2022-09-28T10:48:07.415Z,13.60
2022-09-28T10:50:35.379Z,13.70
2022-09-28T10:53:17.578Z,13.80
2022-09-28T10:56:19.516Z,14.00
2022-09-28T10:58:49.040Z,14.10
2022-09-28T11:01:31.435Z,14.20
2022-09-28T11:04:10.481Z,14.30
2022-09-28T11:06:40.042Z,14.50
2022-09-28T11:09:34.672Z,14.50
2022-09-28T11:12:14.486Z,14.60
2022-09-28T11:14:44.350Z,14.50
2022-09-28T11:17:19.058Z,14.40
2022-09-28T11:19:48.375Z,14.10
2022-09-28T11:22:26.671Z,14.00
2022-09-28T11:25:17.158Z,13.80
2022-09-28T11:27:50.925Z,13.70
2022-09-28T11:30:31.111Z,13.70
2022-09-28T11:33:39.672Z,13.70
2022-09-28T11:36:13.078Z,13.80
2022-09-28T11:38:55.781Z,14.90
2022-09-28T11:42:42.915Z,13.80
2022-09-28T11:45:23.440Z,13.80
2022-09-28T11:48:15.569Z,13.80
2022-09-28T11:50:56.228Z,13.70
2022-09-28T11:53:31.547Z,13.90
2022-09-28T11:56:29.353Z,14.00
2022-09-28T11:59:23.770Z,14.10
2022-09-28T12:01:56.713Z,14.20
2022-09-28T12:05:17.118Z,14.40
2022-09-28T12:07:52.578Z,14.40
2022-09-28T12:11:05.989Z,14.40
2022-09-28T12:13:56.145Z,14.40
2022-09-28T12:17:04.139Z,14.40
2022-09-28T12:20:03.742Z,14.40
2022-09-28T12:22:55.721Z,14.40
2022-09-28T12:25:24.669Z,14.50
2022-09-28T12:27:58.056Z,13.50
2022-09-28T12:30:27.934Z,14.50
2022-09-28T12:33:04.496Z,14.40
2022-09-28T12:35:53.404Z,14.40
2022-09-28T12:39:17.658Z,14.40
2022-09-28T12:41:57.842Z,14.40
2022-09-28T12:44:46.784Z,14.50
2022-09-28T12:47:49.476Z,14.60
2022-09-28T12:50:44.023Z,14.80
2022-09-28T12:53:16.393Z,14.90
2022-09-28T12:55:54.231Z,14.90
2022-09-28T12:58:50.625Z,14.90
2022-09-28T13:01:36.368Z,14.90
2022-09-28T13:04:39.260Z,14.90
2022-09-28T13:07:12.320Z,14.90
2022-09-28T13:10:20.001Z,15.10
2022-09-28T13:13:01.555Z,15.00
2022-09-28T13:15:44.547Z,15.00
2022-09-28T13:18:21.735Z,15.10
2022-09-28T13:23:31.121Z,15.30
2022-09-28T13:26:14.565Z,15.50
2022-09-28T13:28:45.370Z,15.50
2022-09-28T13:31:20.854Z,15.50
2022-09-28T13:33:50.449Z,15.60
2022-09-28T13:36:30.570Z,15.60
2022-09-28T13:39:00.141Z,15.60
2022-09-28T13:41:38.180Z,15.60
2022-09-28T13:44:13.836Z,15.60
2022-09-28T13:47:02.614Z,15.60
2022-09-28T13:49:51.108Z,15.60
2022-09-28T13:53:03.909Z,15.70
2022-09-28T13:55:47.749Z,15.70
2022-09-28T13:58:17.895Z,15.70
2022-09-28T14:00:55.773Z,15.60
2022-09-28T14:03:52.891Z,15.50
2022-09-28T14:06:25.293Z,15.30
2022-09-28T14:08:58.606Z,15.20
2022-09-28T14:11:34.424Z,15.10
2022-09-28T14:14:08.373Z,15.10
2022-09-28T14:16:36.936Z,15.00
2022-09-28T14:19:20.206Z,15.00
2022-09-28T14:22:13.728Z,15.00
2022-09-28T14:24:45.179Z,15.00
2022-09-28T14:27:27.851Z,15.00
2022-09-28T14:30:11.882Z,15.00
2022-09-28T14:32:43.036Z,15.00
2022-09-28T14:35:31.200Z,15.00
2022-09-28T14:38:39.415Z,15.00
2022-09-28T14:41:24.117Z,15.00
2022-09-28T14:44:02.503Z,15.10
2022-09-28T14:46:43.452Z,15.10
2022-09-28T14:49:17.541Z,15.30
2022-09-28T14:51:48.247Z,15.30
2022-09-28T14:54:21.049Z,15.40
2022-09-28T14:56:57.081Z,15.40
2022-09-28T14:59:24.882Z,15.50
2022-09-28T15:02:12.540Z,15.50
2022-09-28T15:04:52.347Z,15.50
2022-09-28T15:07:43.622Z,15.50
2022-09-28T15:10:33.573Z,15.40
2022-09-28T15:13:06.199Z,15.30
2022-09-28T15:15:40.071Z,15.30
2022-09-28T15:18:29.041Z,15.20
2022-09-28T15:20:58.014Z,15.20
2022-09-28T15:23:34.356Z,15.10
2022-09-28T15:26:03.612Z,15.10
2022-09-28T15:28:31.313Z,15.00
2022-09-28T15:31:03.612Z,14.90
2022-09-28T15:33:52.248Z,14.90
2022-09-28T15:36:29.679Z,14.80
2022-09-28T15:39:05.982Z,14.70
2022-09-28T15:41:34.295Z,14.60
2022-09-28T15:44:14.854Z,14.60
2022-09-28T15:46:52.012Z,14.50
2022-09-28T15:49:25.650Z,14.40
2022-09-28T15:51:56.157Z,14.30
2022-09-28T15:54:28.071Z,14.10
2022-09-28T15:56:59.712Z,14.20
2022-09-28T15:59:31.982Z,14.10
2022-09-28T16:02:20.716Z,14.40
2022-09-28T16:04:56.721Z,14.00
2022-09-28T16:07:33.544Z,14.00
2022-09-28T16:10:13.153Z,14.00
2022-09-28T16:12:46.761Z,13.90
2022-09-28T16:15:20.673Z,13.90
2022-09-28T16:17:57.902Z,13.80
2022-09-28T16:20:29.889Z,13.80
2022-09-28T16:23:05.946Z,13.70
2022-09-28T16:25:39.144Z,13.70
2022-09-28T16:28:07.161Z,13.70
2022-09-28T16:30:35.314Z,13.70
2022-09-28T16:33:05.155Z,13.60
2022-09-28T16:35:35.578Z,13.60
2022-09-28T16:38:14.690Z,13.60
2022-09-28T16:40:46.362Z,13.50
2022-09-28T16:43:27.136Z,13.40
2022-09-28T16:46:01.168Z,13.40
2022-09-28T16:48:31.599Z,13.30
2022-09-28T16:50:59.461Z,13.50
2022-09-28T16:53:46.232Z,13.30
2022-09-28T16:56:13.923Z,13.30
2022-09-28T16:58:42.612Z,13.20
2022-09-28T17:01:12.366Z,13.10
2022-09-28T17:03:44.410Z,13.10
2022-09-28T17:06:12.960Z,13.00
2022-09-28T17:08:41.613Z,13.00
2022-09-28T17:11:20.450Z,12.90
2022-09-28T17:13:51.863Z,12.80
2022-09-28T17:19:21.874Z,12.70
2022-09-28T17:21:51.139Z,12.70
2022-09-28T17:24:19.832Z,12.60
2022-09-28T17:26:49.583Z,12.50
2022-09-28T17:29:17.593Z,12.70
2022-09-28T17:31:46.587Z,12.30
2022-09-28T17:34:16.400Z,12.30
2022-09-28T17:36:44.803Z,12.20
2022-09-28T17:39:14.128Z,12.20
2022-09-28T17:41:41.834Z,12.10
2022-09-28T17:44:09.706Z,12.00
2022-09-28T17:46:40.780Z,11.90
2022-09-28T17:49:11.838Z,11.80
2022-09-28T17:51:39.429Z,11.80
2022-09-28T17:54:08.139Z,11.70
2022-09-28T17:56:36.508Z,11.60
2022-09-28T17:59:10.629Z,11.60
2022-09-28T18:01:39.704Z,11.40
2022-09-28T18:04:09.369Z,11.40
2022-09-28T18:06:39.701Z,11.30
2022-09-28T18:09:08.790Z,11.20
2022-09-28T18:11:42.467Z,11.20
2022-09-28T18:14:11.299Z,11.10
2022-09-28T18:16:39.112Z,11.10
2022-09-28T18:19:06.699Z,11.10
2022-09-28T18:21:34.388Z,11.00
2022-09-28T18:24:01.995Z,10.90
2022-09-28T18:26:29.504Z,10.90
2022-09-28T18:28:57.064Z,10.90
2022-09-28T18:31:24.705Z,10.80
2022-09-28T18:34:00.251Z,10.80
2022-09-28T18:36:32.110Z,10.70
2022-09-28T18:39:03.253Z,10.70
2022-09-28T18:41:31.073Z,10.70
2022-09-28T18:44:01.815Z,10.80
2022-09-28T18:46:30.457Z,10.60
2022-09-28T18:48:58.037Z,10.70
2022-09-28T18:51:26.447Z,10.60
2022-09-28T18:53:54.182Z,10.50
2022-09-28T18:56:21.787Z,10.40
2022-09-28T18:58:52.629Z,10.40
2022-09-28T19:01:30.336Z,10.40
2022-09-28T19:04:00.595Z,10.30
2022-09-28T19:06:28.817Z,10.50
2022-09-28T19:08:56.977Z,10.20
2022-09-28T19:11:25.771Z,10.20
2022-09-28T19:13:55.008Z,10.00
2022-09-28T19:16:25.285Z,10.20
2022-09-28T19:18:53.728Z,10.10
2022-09-28T19:21:23.474Z,10.00
2022-09-28T19:23:53.569Z,11.00
2022-09-28T19:26:24.082Z,10.30
2022-09-28T19:28:51.967Z,9.90
2022-09-28T19:31:20.286Z,9.90
2022-09-28T19:33:48.426Z,9.80
2022-09-28T19:36:18.852Z,9.90
2022-09-28T19:38:46.723Z,9.70
2022-09-28T19:41:39.033Z,9.70
2022-09-28T19:44:26.943Z,10.30
2022-09-28T19:46:55.809Z,9.70
2022-09-28T19:49:24.654Z,9.70
2022-09-28T19:52:14.448Z,9.60
2022-09-28T19:54:55.719Z,9.50
2022-09-28T19:57:33.123Z,9.50
2022-09-28T20:00:04.015Z,9.50
2022-09-28T20:02:35.157Z,9.50
2022-09-28T20:05:02.946Z,9.40
2022-09-28T20:07:32.909Z,9.40
2022-09-28T20:10:00.630Z,9.40
2022-09-28T20:12:28.260Z,10.90
2022-09-28T20:14:55.790Z,9.30
2022-09-28T20:17:23.492Z,9.30
2022-09-28T20:19:51.794Z,9.20
2022-09-28T20:22:20.356Z,9.20
2022-09-28T20:24:47.912Z,9.20
2022-09-28T20:27:15.681Z,9.10
2022-09-28T20:29:43.290Z,9.10
2022-09-28T20:32:11.568Z,9.10
2022-09-28T20:34:39.460Z,9.00
2022-09-28T20:37:07.080Z,9.00
2022-09-28T20:39:34.541Z,8.90
2022-09-28T20:42:02.784Z,8.90
2022-09-28T20:44:30.955Z,8.90
2022-09-28T20:46:58.529Z,8.90
2022-09-28T20:49:28.058Z,8.90
2022-09-28T20:51:56.052Z,8.80
2022-09-28T20:54:23.665Z,8.80
2022-09-28T20:56:51.407Z,8.80
2022-09-28T20:59:20.348Z,8.80
2022-09-28T21:01:48.438Z,8.70
2022-09-28T21:04:16.032Z,9.20
2022-09-28T21:06:44.009Z,8.80
2022-09-28T21:09:12.403Z,9.40
2022-09-28T21:11:40.266Z,8.60
2022-09-28T21:14:10.207Z,8.50
2022-09-28T21:16:38.906Z,8.50
2022-09-28T21:21:34.384Z,8.40
2022-09-28T21:24:02.195Z,8.90
2022-09-28T21:26:31.213Z,8.30
2022-09-28T21:29:01.000Z,8.40
2022-09-28T21:31:37.368Z,8.30
2022-09-28T21:34:05.193Z,8.30
2022-09-28T21:36:33.681Z,9.10
2022-09-28T21:39:01.232Z,8.30
2022-09-28T21:41:29.171Z,9.00
2022-09-28T21:43:56.640Z,8.20
2022-09-28T21:46:24.777Z,8.20
2022-09-28T21:48:55.421Z,8.20
2022-09-28T21:51:23.359Z,8.20
2022-09-28T21:53:51.171Z,8.10
2022-09-28T21:56:18.710Z,8.10
2022-09-28T21:58:46.950Z,8.10
2022-09-28T22:01:20.731Z,8.00
2022-09-28T22:03:54.127Z,8.00
2022-09-28T22:06:23.789Z,8.00
2022-09-28T22:08:51.746Z,7.90
2022-09-28T22:11:25.950Z,7.90
2022-09-28T22:13:56.155Z,7.90
2022-09-28T22:16:25.983Z,7.90
2022-09-28T22:18:53.738Z,7.80
2022-09-28T22:21:24.446Z,7.80
2022-09-28T22:23:51.994Z,7.80
2022-09-28T22:26:25.229Z,7.80
2022-09-28T22:28:55.512Z,7.80
2022-09-28T22:31:41.610Z,8.40
2022-09-28T22:34:09.771Z,7.70
2022-09-28T22:36:37.533Z,7.80
2022-09-28T22:39:05.364Z,7.70
2022-09-28T22:41:33.429Z,7.70
2022-09-28T22:44:01.291Z,7.70
2022-09-28T22:46:31.164Z,7.70
2022-09-28T22:49:00.144Z,7.60
2022-09-28T22:51:29.826Z,7.60
2022-09-28T22:53:58.542Z,7.60
2022-09-28T22:56:26.355Z,7.50
2022-09-28T22:58:54.484Z,7.50
2022-09-28T23:01:27.593Z,7.50
2022-09-28T23:03:56.689Z,7.50
2022-09-28T23:06:26.765Z,7.50
2022-09-28T23:08:54.518Z,7.00
2022-09-28T23:11:22.621Z,7.50
2022-09-28T23:13:51.696Z,7.90
2022-09-28T23:16:20.240Z,7.50
2022-09-28T23:18:49.287Z,7.50
2022-09-28T23:21:19.148Z,7.50
2022-09-28T23:23:52.222Z,7.40
2022-09-28T23:26:25.693Z,7.70
2022-09-28T23:28:54.352Z,7.30
2022-09-28T23:31:24.719Z,7.40
2022-09-28T23:33:56.424Z,7.80
2022-09-28T23:36:24.020Z,7.40
2022-09-28T23:38:51.567Z,7.30
2022-09-28T23:41:19.629Z,8.10
2022-09-28T23:43:47.216Z,7.30
2022-09-28T23:46:20.303Z,7.30
2022-09-28T23:48:49.167Z,7.30
2022-09-28T23:51:17.155Z,7.30
2022-09-28T23:53:45.095Z,7.20
2022-09-28T23:56:14.544Z,7.20
2022-09-28T23:58:42.262Z,7.20
